Holabird, South Dakota
Current Conditions -  °F | °C
As of 8:53 PM on Tuesday 21 Oct 2014 (Local Time) from KPIR Reporting Station
Clear Clear  
Wind Chill: 68°   Ceiling: Unl
Heat Index: 68°   Visibility: 10mi
Dew Point: 37°   Wind: 18mph
Humidity: 32%   Direction: 120°ESE
Pressure: 29.77"   Gusts: NA
Location:  44.53°N, 99.6°W
Report Text: KPIR 220153Z AUTO 12016KT 10SM CLR 20/03 A2977 RMK AO2 SLP077 T02000028
Loading
Personal Weather Stations






























Interactive Weather Map
Tropical Storm Tracking
New forecast layout! Learn more

10-Day Weather Forecast

Advertisements
Track Severe Weather on mobile